General Mariano Escobedo International Airport
MMMY : now visible

Airfield :











YOU CAN JOIN US ON...

 
LOGIN :

Register | Disclaimer

   EN    FR    IT 

 









Legend :    VFR   Marginal VFR   IFR   Intensive IFR   Very Intensive IFR
Visi :
Ceiling :
>= 8 km
>= 3000ft
5 to 8 km
1000 to 3000 ft
1500m to 5 km
500 to 1000 ft
800 to 1500m
200 to 500 ft
< 800m
< 200 ft
Symbols :   Thunderstorms  Fog  Heavy snow  Heavy precipitations  Wind > 20 kt






- Airport Elevation : 1278 ft
- IATA code : MTY


MMMY - General Mariano Escobedo International

CURRENT METAR :
  • 041640Z 00000KT 8SM SKC 30/20 A2995

EXPIRED METARs :
  • 041540Z 00000KT 8SM SKC 29/21 A2996
  • 041440Z 21004KT 8SM SKC 26/22 A2997 RMK SLP/// 5//// 9//

TAF AMD TAF MMMY
Valid from the 04 at 14:00 until the 05 at 18:00 UTC


041419Z 0414/0518 21006KT P6SM SCT020 TX35/0422Z TN24/0512Z
BECMG 0417/0418 10015KT
FM050200 15008KT P6SM SCT020
BECMG 0509/0510 12005KT 6SM HZ
TEMPO 0511/0515 5SM HZ
FM051700 13008KT P6SM SKC
MMFR FIR / North America



MET'MAP, your aeronautical weather chart ! - Copyright ORBIFLY December 2007 - Disclaimer

ORBIFLY MET'MAP TEAM :

Programming & Development : Alexandra Zaïnal
Concept & original design : Baudouin d'Aumeries
Assistance for programming : Marc-Olivier Méhu
Technical & hardware support : Manuel Goepfert

Contact : metmap@orbifly.com




SOURCES & CREDITS :

   NOAA       Earth
Advisory